Terminal Aerodrome Forecast
Issued by NWS

Home | Current Version | Previous Version | Text Only | Print | Product List | Glossary On
Versions: 1 2 3 4 5 6 7 8 9 10 11 12 13 14
000
FTUS41 KBTV 210500
TAFSLK
TAF
KSLK 210520Z 2106/2206 22012KT P6SM SCT035 BKN050
     FM211700 21010G16KT P6SM -SHRA OVC035
     FM212100 20007KT 5SM -SHRA BR OVC025
     FM212300 20005KT 4SM -SHRA BR OVC020
     FM220300 33003KT 3SM BR OVC015=

USA.gov is the U.S. government's official web portal to all federal, state and local government web resources and services.